AFL1395 USPP-UUEE
Flight info
| Callsign | AFL1395 |
|---|---|
| Flight time | 2h 10m |
| Altitude | 36000 |
| Route | GEBSI1M GEBSI M60 BAPTA P874 BAPUN N181 GOBOM T187 ROMTA ROMTA3E |
| Aircraft | A320/M-SDE3FGHIRWY/LB1 |
Departure
| Time | 2026-04-30 20:47 |
|---|---|
| Airport | Perm International Airport (USPP) |
Arrival
| Time | 2026-04-30 22:57 |
|---|---|
| Airport | Sheremetyevo International Airport (UUEE) |
| Time | Latitude | Longitude | Altitude | Speed | Heading |
|---|---|---|---|---|---|
| 2026-04-30 20:24 | 57.91766 | 56.01823 | 397 ft | 0 kts | 136° |
| 2026-04-30 20:30 | 57.91766 | 56.01822 | 397 ft | 0 kts | 136° |
| 2026-04-30 20:37 | 57.91759 | 56.01849 | 395 ft | 5 kts | 104° |
| 2026-04-30 20:37 | 57.91769 | 56.01894 | 391 ft | 3 kts | 55° |
| 2026-04-30 20:37 | 57.91779 | 56.01919 | 394 ft | 2 kts | 53° |
| 2026-04-30 20:37 | 57.91783 | 56.01926 | 397 ft | 0 kts | 50° |
| 2026-04-30 20:38 | 57.91795 | 56.01953 | 397 ft | 6 kts | 48° |
| 2026-04-30 20:39 | 57.91835 | 56.02055 | 394 ft | 6 kts | 79° |
| 2026-04-30 20:39 | 57.91828 | 56.02117 | 396 ft | 4 kts | 103° |
| 2026-04-30 20:39 | 57.91821 | 56.02169 | 395 ft | 5 kts | 104° |
| 2026-04-30 20:40 | 57.91769 | 56.02314 | 396 ft | 6 kts | 135° |
| 2026-04-30 20:40 | 57.91749 | 56.02350 | 395 ft | 0 kts | 135° |
| 2026-04-30 20:41 | 57.91739 | 56.02369 | 398 ft | 8 kts | 135° |
| 2026-04-30 20:42 | 57.91698 | 56.02443 | 395 ft | 7 kts | 136° |
| 2026-04-30 20:42 | 57.91644 | 56.02481 | 400 ft | 9 kts | 188° |
| 2026-04-30 20:42 | 57.91497 | 56.02219 | 395 ft | 23 kts | 225° |
| 2026-04-30 20:43 | 57.91378 | 56.01991 | 398 ft | 25 kts | 226° |
| 2026-04-30 20:43 | 57.91259 | 56.01755 | 399 ft | 25 kts | 227° |
| 2026-04-30 20:43 | 57.91133 | 56.01517 | 395 ft | 27 kts | 225° |
| 2026-04-30 20:44 | 57.90880 | 56.01022 | 395 ft | 25 kts | 225° |
| 2026-04-30 20:44 | 57.90756 | 56.00786 | 396 ft | 26 kts | 225° |
| 2026-04-30 20:44 | 57.90539 | 56.00332 | 393 ft | 12 kts | 243° |
| 2026-04-30 20:45 | 57.90493 | 56.00285 | 392 ft | 7 kts | 41° |
| 2026-04-30 20:45 | 57.90503 | 56.00303 | 392 ft | 0 kts | 44° |
| 2026-04-30 20:46 | 57.91360 | 56.01960 | 395 ft | 146 kts | 46° |
| 2026-04-30 20:46 | 57.92137 | 56.03464 | 745 ft | 162 kts | 46° |
| 2026-04-30 20:47 | 57.93647 | 56.06481 | 2254 ft | 153 kts | 46° |
| 2026-04-30 20:47 | 57.94345 | 56.07879 | 2966 ft | 143 kts | 46° |
| 2026-04-30 20:48 | 57.95733 | 56.10499 | 3546 ft | 149 kts | 36° |
| 2026-04-30 20:48 | 57.96711 | 56.11354 | 3545 ft | 164 kts | 1° |
| 2026-04-30 20:48 | 57.97806 | 56.10732 | 3903 ft | 178 kts | 315° |
| 2026-04-30 20:48 | 57.98499 | 56.08688 | 4143 ft | 198 kts | 287° |
| 2026-04-30 20:49 | 57.98584 | 56.05970 | 4406 ft | 222 kts | 255° |
| 2026-04-30 20:49 | 57.97735 | 56.03423 | 4772 ft | 245 kts | 218° |
| 2026-04-30 20:49 | 57.96741 | 56.02214 | 5108 ft | 257 kts | 208° |
| 2026-04-30 20:50 | 57.93933 | 55.99816 | 6500 ft | 266 kts | 202° |
| 2026-04-30 20:50 | 57.92253 | 55.98334 | 7322 ft | 269 kts | 215° |
| 2026-04-30 20:50 | 57.90967 | 55.95809 | 8150 ft | 270 kts | 240° |
| 2026-04-30 20:50 | 57.90412 | 55.92450 | 9012 ft | 273 kts | 266° |
| 2026-04-30 20:51 | 57.90698 | 55.88923 | 9877 ft | 278 kts | 291° |
| 2026-04-30 20:51 | 57.92991 | 55.82748 | 11131 ft | 297 kts | 305° |
| 2026-04-30 20:51 | 57.94278 | 55.79692 | 11864 ft | 301 kts | 305° |
| 2026-04-30 20:52 | 57.95589 | 55.76581 | 12627 ft | 304 kts | 304° |
| 2026-04-30 20:52 | 57.96906 | 55.73441 | 13378 ft | 308 kts | 303° |
| 2026-04-30 20:52 | 57.99580 | 55.67013 | 14746 ft | 314 kts | 302° |
| 2026-04-30 20:53 | 58.00931 | 55.63750 | 15418 ft | 317 kts | 302° |
| 2026-04-30 20:53 | 58.02289 | 55.60463 | 16065 ft | 320 kts | 302° |
| 2026-04-30 20:53 | 58.03663 | 55.57125 | 16711 ft | 323 kts | 301° |
| 2026-04-30 20:54 | 58.06434 | 55.50358 | 17991 ft | 329 kts | 301° |
| 2026-04-30 20:54 | 58.07842 | 55.46924 | 18581 ft | 332 kts | 301° |
| 2026-04-30 20:54 | 58.09260 | 55.43459 | 19112 ft | 335 kts | 301° |
| 2026-04-30 20:55 | 58.12134 | 55.36416 | 20144 ft | 342 kts | 300° |
| 2026-04-30 20:55 | 58.13591 | 55.32838 | 20671 ft | 345 kts | 300° |
| 2026-04-30 20:55 | 58.15059 | 55.29231 | 21190 ft | 348 kts | 300° |
| 2026-04-30 20:56 | 58.18047 | 55.21886 | 22230 ft | 355 kts | 299° |
| 2026-04-30 20:56 | 58.19553 | 55.18172 | 22752 ft | 358 kts | 299° |
| 2026-04-30 20:56 | 58.22606 | 55.10619 | 23735 ft | 364 kts | 298° |
| 2026-04-30 20:57 | 58.24154 | 55.06774 | 24140 ft | 367 kts | 298° |
| 2026-04-30 20:57 | 58.25705 | 55.02916 | 24561 ft | 370 kts | 298° |
| 2026-04-30 20:57 | 58.27271 | 54.99018 | 24961 ft | 372 kts | 298° |
| 2026-04-30 20:58 | 58.30433 | 54.91118 | 25748 ft | 378 kts | 297° |
| 2026-04-30 20:58 | 58.31868 | 54.86990 | 26135 ft | 371 kts | 288° |
| 2026-04-30 20:58 | 58.32916 | 54.82555 | 26516 ft | 364 kts | 279° |
| 2026-04-30 20:58 | 58.33673 | 54.77980 | 26904 ft | 364 kts | 277° |
| 2026-04-30 20:59 | 58.35179 | 54.68694 | 27663 ft | 370 kts | 277° |
| 2026-04-30 20:59 | 58.35941 | 54.64010 | 28029 ft | 372 kts | 277° |
| 2026-04-30 21:00 | 58.37485 | 54.54516 | 28752 ft | 378 kts | 277° |
| 2026-04-30 21:00 | 58.39044 | 54.44892 | 29469 ft | 383 kts | 276° |
| 2026-04-30 21:01 | 58.40611 | 54.35122 | 30165 ft | 388 kts | 276° |
| 2026-04-30 21:01 | 58.41400 | 54.30185 | 30448 ft | 390 kts | 276° |
| 2026-04-30 21:01 | 58.42988 | 54.20224 | 31013 ft | 395 kts | 277° |
| 2026-04-30 21:02 | 58.43787 | 54.15192 | 31294 ft | 397 kts | 277° |
| 2026-04-30 21:02 | 58.44585 | 54.10138 | 31569 ft | 399 kts | 277° |
| 2026-04-30 21:02 | 58.45375 | 54.05108 | 31843 ft | 401 kts | 277° |
| 2026-04-30 21:02 | 58.46185 | 53.99927 | 32121 ft | 404 kts | 277° |
| 2026-04-30 21:03 | 58.46980 | 53.94846 | 32391 ft | 406 kts | 278° |
| 2026-04-30 21:03 | 58.47791 | 53.89661 | 32665 ft | 408 kts | 278° |
| 2026-04-30 21:03 | 58.48607 | 53.84443 | 32927 ft | 411 kts | 278° |
| 2026-04-30 21:03 | 58.49424 | 53.79207 | 33189 ft | 413 kts | 278° |
| 2026-04-30 21:04 | 58.50246 | 53.73929 | 33447 ft | 415 kts | 279° |
| 2026-04-30 21:04 | 58.51069 | 53.68616 | 33706 ft | 418 kts | 279° |
| 2026-04-30 21:04 | 58.52719 | 53.57905 | 34179 ft | 422 kts | 279° |
| 2026-04-30 21:05 | 58.53548 | 53.52507 | 34357 ft | 424 kts | 279° |
| 2026-04-30 21:05 | 58.54378 | 53.47078 | 34537 ft | 426 kts | 279° |
| 2026-04-30 21:05 | 58.55210 | 53.41610 | 34708 ft | 428 kts | 279° |
| 2026-04-30 21:05 | 58.56040 | 53.36122 | 34872 ft | 430 kts | 279° |
| 2026-04-30 21:06 | 58.56869 | 53.30594 | 35025 ft | 432 kts | 279° |
| 2026-04-30 21:06 | 58.57699 | 53.25038 | 35189 ft | 434 kts | 280° |
| 2026-04-30 21:06 | 58.58534 | 53.19458 | 35341 ft | 436 kts | 280° |
| 2026-04-30 21:06 | 58.59374 | 53.13855 | 35500 ft | 438 kts | 280° |
| 2026-04-30 21:07 | 58.60218 | 53.08223 | 35638 ft | 440 kts | 280° |
| 2026-04-30 21:07 | 58.61063 | 53.02569 | 35798 ft | 442 kts | 281° |
| 2026-04-30 21:07 | 58.61909 | 52.96891 | 35961 ft | 444 kts | 281° |
| 2026-04-30 21:07 | 58.62750 | 52.91188 | 36033 ft | 445 kts | 281° |
| 2026-04-30 21:08 | 58.64399 | 52.79734 | 36043 ft | 444 kts | 277° |
| 2026-04-30 21:08 | 58.64830 | 52.68094 | 36044 ft | 434 kts | 263° |
| 2026-04-30 21:09 | 58.64505 | 52.56580 | 36043 ft | 435 kts | 263° |
| 2026-04-30 21:09 | 58.64194 | 52.44961 | 36043 ft | 436 kts | 263° |
| 2026-04-30 21:10 | 58.63863 | 52.33323 | 36043 ft | 437 kts | 263° |
| 2026-04-30 21:10 | 58.63525 | 52.21667 | 36041 ft | 438 kts | 263° |
| 2026-04-30 21:11 | 58.63168 | 52.09995 | 36047 ft | 438 kts | 263° |
| 2026-04-30 21:11 | 58.62808 | 51.98315 | 36047 ft | 439 kts | 263° |
| 2026-04-30 21:12 | 58.62439 | 51.86617 | 36047 ft | 440 kts | 263° |
| 2026-04-30 21:12 | 58.62056 | 51.74906 | 36048 ft | 440 kts | 263° |
| 2026-04-30 21:13 | 58.61653 | 51.63178 | 36048 ft | 441 kts | 263° |
| 2026-04-30 21:13 | 58.61241 | 51.51450 | 36050 ft | 441 kts | 263° |
| 2026-04-30 21:14 | 58.60832 | 51.39773 | 36048 ft | 442 kts | 263° |
| 2026-04-30 21:14 | 58.60432 | 51.28017 | 36050 ft | 442 kts | 263° |
| 2026-04-30 21:15 | 58.60023 | 51.16247 | 36049 ft | 442 kts | 263° |
| 2026-04-30 21:15 | 58.59604 | 51.04479 | 36050 ft | 443 kts | 263° |
| 2026-04-30 21:16 | 58.59165 | 50.92698 | 36054 ft | 443 kts | 263° |
| 2026-04-30 21:16 | 58.58711 | 50.80914 | 36054 ft | 443 kts | 263° |
| 2026-04-30 21:17 | 58.58248 | 50.69127 | 36052 ft | 444 kts | 263° |
| 2026-04-30 21:17 | 58.57774 | 50.57326 | 36051 ft | 444 kts | 263° |
| 2026-04-30 21:18 | 58.57515 | 50.45490 | 36053 ft | 446 kts | 269° |
| 2026-04-30 21:18 | 58.57637 | 50.33682 | 36054 ft | 447 kts | 268° |
| 2026-04-30 21:19 | 58.57735 | 50.21760 | 36051 ft | 447 kts | 268° |
| 2026-04-30 21:19 | 58.57831 | 50.09848 | 36054 ft | 448 kts | 268° |
| 2026-04-30 21:20 | 58.57922 | 49.97919 | 36055 ft | 448 kts | 268° |
| 2026-04-30 21:20 | 58.57998 | 49.85991 | 36055 ft | 448 kts | 268° |
| 2026-04-30 21:21 | 58.58057 | 49.75970 | 36054 ft | 448 kts | 268° |
| 2026-04-30 21:22 | 58.58142 | 49.58107 | 36058 ft | 449 kts | 268° |
| 2026-04-30 21:23 | 58.58202 | 49.34136 | 36056 ft | 450 kts | 268° |
| 2026-04-30 21:23 | 58.58226 | 49.16133 | 36053 ft | 451 kts | 268° |
| 2026-04-30 21:24 | 58.58216 | 49.04108 | 36050 ft | 451 kts | 268° |
| 2026-04-30 21:24 | 58.58203 | 48.92081 | 36054 ft | 452 kts | 268° |
| 2026-04-30 21:25 | 58.58148 | 48.73995 | 36057 ft | 452 kts | 268° |
| 2026-04-30 21:26 | 58.58068 | 48.55916 | 36052 ft | 453 kts | 268° |
| 2026-04-30 21:27 | 58.57969 | 48.37804 | 36053 ft | 453 kts | 268° |
| 2026-04-30 21:27 | 58.57880 | 48.25720 | 36051 ft | 454 kts | 268° |
| 2026-04-30 21:28 | 58.57666 | 48.07580 | 36052 ft | 454 kts | 267° |
| 2026-04-30 21:29 | 58.57383 | 47.89516 | 36049 ft | 455 kts | 267° |
| 2026-04-30 21:30 | 58.56915 | 47.59234 | 36048 ft | 455 kts | 267° |
| 2026-04-30 21:31 | 58.56455 | 47.28890 | 36051 ft | 456 kts | 268° |
| 2026-04-30 21:32 | 58.56277 | 47.10659 | 36052 ft | 457 kts | 268° |
| 2026-04-30 21:32 | 58.56119 | 46.98504 | 36051 ft | 457 kts | 268° |
| 2026-04-30 21:33 | 58.55854 | 46.80236 | 36056 ft | 457 kts | 268° |
| 2026-04-30 21:34 | 58.55668 | 46.68140 | 36056 ft | 458 kts | 268° |
| 2026-04-30 21:34 | 58.55368 | 46.49878 | 36059 ft | 458 kts | 267° |
| 2026-04-30 21:35 | 58.55140 | 46.37669 | 36060 ft | 458 kts | 267° |
| 2026-04-30 21:35 | 58.54911 | 46.25467 | 36062 ft | 459 kts | 268° |
| 2026-04-30 21:36 | 58.54679 | 46.13263 | 36062 ft | 459 kts | 267° |
| 2026-04-30 21:37 | 58.54156 | 45.88808 | 36063 ft | 460 kts | 267° |
| 2026-04-30 21:37 | 58.53874 | 45.76585 | 36064 ft | 460 kts | 267° |
| 2026-04-30 21:38 | 58.53672 | 45.64344 | 36061 ft | 460 kts | 269° |
| 2026-04-30 21:38 | 58.53595 | 45.52099 | 36061 ft | 460 kts | 269° |
| 2026-04-30 21:39 | 58.53495 | 45.39833 | 36062 ft | 461 kts | 269° |
| 2026-04-30 21:39 | 58.53349 | 45.27661 | 36059 ft | 461 kts | 268° |
| 2026-04-30 21:40 | 58.53185 | 45.15389 | 36062 ft | 461 kts | 268° |
| 2026-04-30 21:40 | 58.53012 | 45.03138 | 36060 ft | 461 kts | 268° |
| 2026-04-30 21:41 | 58.52828 | 44.90860 | 36067 ft | 461 kts | 268° |
| 2026-04-30 21:41 | 58.52627 | 44.78586 | 36064 ft | 461 kts | 268° |
| 2026-04-30 21:42 | 58.52418 | 44.66325 | 36058 ft | 462 kts | 268° |
| 2026-04-30 21:42 | 58.52206 | 44.54043 | 36062 ft | 462 kts | 268° |
| 2026-04-30 21:43 | 58.51978 | 44.41764 | 36062 ft | 462 kts | 268° |
| 2026-04-30 21:43 | 58.51735 | 44.29499 | 36063 ft | 462 kts | 268° |
| 2026-04-30 21:44 | 58.51475 | 44.17229 | 36062 ft | 462 kts | 268° |
| 2026-04-30 21:44 | 58.51209 | 44.04954 | 36062 ft | 462 kts | 268° |
| 2026-04-30 21:45 | 58.50937 | 43.92675 | 36063 ft | 462 kts | 268° |
| 2026-04-30 21:45 | 58.50649 | 43.80405 | 36065 ft | 462 kts | 268° |
| 2026-04-30 21:46 | 58.50343 | 43.68200 | 36064 ft | 462 kts | 268° |
| 2026-04-30 21:46 | 58.50027 | 43.55921 | 36064 ft | 462 kts | 268° |
| 2026-04-30 21:47 | 58.49701 | 43.43646 | 36070 ft | 462 kts | 268° |
| 2026-04-30 21:47 | 58.49360 | 43.31361 | 36070 ft | 462 kts | 268° |
| 2026-04-30 21:48 | 58.49002 | 43.19086 | 36071 ft | 463 kts | 268° |
| 2026-04-30 21:48 | 58.48635 | 43.06830 | 36072 ft | 463 kts | 268° |
| 2026-04-30 21:49 | 58.48252 | 42.94532 | 36070 ft | 463 kts | 267° |
| 2026-04-30 21:49 | 58.47848 | 42.82247 | 36071 ft | 463 kts | 267° |
| 2026-04-30 21:50 | 58.47433 | 42.69966 | 36072 ft | 464 kts | 267° |
| 2026-04-30 21:50 | 58.47010 | 42.57662 | 36076 ft | 464 kts | 267° |
| 2026-04-30 21:51 | 58.46590 | 42.45367 | 36071 ft | 464 kts | 267° |
| 2026-04-30 21:51 | 58.46147 | 42.33069 | 36073 ft | 464 kts | 267° |
| 2026-04-30 21:52 | 58.45689 | 42.20773 | 36072 ft | 464 kts | 267° |
| 2026-04-30 21:52 | 58.45219 | 42.08482 | 36072 ft | 464 kts | 267° |
| 2026-04-30 21:53 | 58.44738 | 41.96192 | 36068 ft | 464 kts | 267° |
| 2026-04-30 21:53 | 58.44255 | 41.83917 | 36071 ft | 464 kts | 267° |
| 2026-04-30 21:54 | 58.43756 | 41.71711 | 36064 ft | 464 kts | 267° |
| 2026-04-30 21:54 | 58.43246 | 41.59431 | 36066 ft | 464 kts | 267° |
| 2026-04-30 21:55 | 58.42717 | 41.47136 | 36068 ft | 464 kts | 267° |
| 2026-04-30 21:55 | 58.42178 | 41.34868 | 36067 ft | 464 kts | 267° |
| 2026-04-30 21:56 | 58.41630 | 41.22591 | 36067 ft | 464 kts | 266° |
| 2026-04-30 21:56 | 58.41065 | 41.10320 | 36066 ft | 464 kts | 266° |
| 2026-04-30 21:57 | 58.40492 | 40.98056 | 36064 ft | 465 kts | 266° |
| 2026-04-30 21:57 | 58.39907 | 40.85784 | 36066 ft | 465 kts | 266° |
| 2026-04-30 21:58 | 58.39307 | 40.73507 | 36057 ft | 465 kts | 266° |
| 2026-04-30 21:58 | 58.38706 | 40.61309 | 36060 ft | 465 kts | 266° |
| 2026-04-30 21:59 | 58.38089 | 40.49031 | 36060 ft | 465 kts | 266° |
| 2026-04-30 22:00 | 58.37132 | 40.30622 | 36055 ft | 465 kts | 266° |
| 2026-04-30 22:00 | 58.36155 | 40.12221 | 36055 ft | 466 kts | 266° |
| 2026-04-30 22:01 | 58.35484 | 39.99969 | 36059 ft | 466 kts | 266° |
| 2026-04-30 22:01 | 58.34802 | 39.87698 | 36055 ft | 466 kts | 266° |
| 2026-04-30 22:02 | 58.33530 | 39.75600 | 36053 ft | 471 kts | 250° |
| 2026-04-30 22:02 | 58.32075 | 39.70013 | 36059 ft | 474 kts | 239° |
| 2026-04-30 22:02 | 58.30091 | 39.64997 | 36058 ft | 476 kts | 228° |
| 2026-04-30 22:03 | 58.25201 | 39.56459 | 36046 ft | 478 kts | 223° |
| 2026-04-30 22:03 | 58.20229 | 39.48075 | 36054 ft | 479 kts | 223° |
| 2026-04-30 22:04 | 58.15243 | 39.39684 | 36056 ft | 479 kts | 223° |
| 2026-04-30 22:05 | 58.07754 | 39.27152 | 36059 ft | 479 kts | 223° |
| 2026-04-30 22:05 | 58.02753 | 39.18824 | 36055 ft | 480 kts | 223° |
| 2026-04-30 22:06 | 57.97749 | 39.10520 | 36063 ft | 480 kts | 223° |
| 2026-04-30 22:06 | 57.90222 | 38.98098 | 36063 ft | 480 kts | 223° |
| 2026-04-30 22:07 | 57.85226 | 38.89902 | 36065 ft | 480 kts | 222° |
| 2026-04-30 22:07 | 57.80193 | 38.81664 | 36058 ft | 480 kts | 222° |
| 2026-04-30 22:08 | 57.75155 | 38.73465 | 36063 ft | 480 kts | 222° |
| 2026-04-30 22:08 | 57.70119 | 38.65281 | 36063 ft | 480 kts | 222° |
| 2026-04-30 22:09 | 57.65073 | 38.57123 | 36065 ft | 480 kts | 222° |
| 2026-04-30 22:09 | 57.60023 | 38.48993 | 36069 ft | 479 kts | 222° |
| 2026-04-30 22:10 | 57.54970 | 38.40874 | 36065 ft | 479 kts | 222° |
| 2026-04-30 22:10 | 57.49921 | 38.32782 | 36070 ft | 480 kts | 222° |
| 2026-04-30 22:11 | 57.42314 | 38.20680 | 36068 ft | 480 kts | 222° |
| 2026-04-30 22:12 | 57.37248 | 38.12645 | 36070 ft | 480 kts | 222° |
| 2026-04-30 22:12 | 57.32169 | 38.04627 | 36070 ft | 480 kts | 222° |
| 2026-04-30 22:13 | 57.27946 | 37.97983 | 36071 ft | 480 kts | 221° |
| 2026-04-30 22:13 | 57.22857 | 37.90028 | 36077 ft | 479 kts | 221° |
| 2026-04-30 22:14 | 57.17734 | 37.82143 | 36075 ft | 480 kts | 216° |
| 2026-04-30 22:14 | 57.14789 | 37.79290 | 36072 ft | 481 kts | 198° |
| 2026-04-30 22:14 | 57.11509 | 37.78126 | 36075 ft | 480 kts | 180° |
| 2026-04-30 22:14 | 57.08207 | 37.78781 | 36077 ft | 478 kts | 163° |
| 2026-04-30 22:15 | 57.05157 | 37.81133 | 36074 ft | 475 kts | 146° |
| 2026-04-30 22:15 | 57.00142 | 37.88896 | 36077 ft | 473 kts | 135° |
| 2026-04-30 22:16 | 56.95274 | 37.97017 | 36078 ft | 473 kts | 136° |
| 2026-04-30 22:17 | 56.85527 | 38.13155 | 36081 ft | 472 kts | 136° |
| 2026-04-30 22:17 | 56.78200 | 38.25165 | 36085 ft | 472 kts | 136° |
| 2026-04-30 22:18 | 56.70859 | 38.37148 | 36073 ft | 472 kts | 136° |
| 2026-04-30 22:19 | 56.63515 | 38.49057 | 36081 ft | 472 kts | 137° |
| 2026-04-30 22:20 | 56.56159 | 38.60931 | 36076 ft | 471 kts | 137° |
| 2026-04-30 22:20 | 56.48839 | 38.72696 | 36079 ft | 471 kts | 137° |
| 2026-04-30 22:21 | 56.43894 | 38.80603 | 36042 ft | 471 kts | 137° |
| 2026-04-30 22:21 | 56.41468 | 38.84463 | 35764 ft | 469 kts | 137° |
| 2026-04-30 22:21 | 56.39031 | 38.88335 | 35453 ft | 466 kts | 137° |
| 2026-04-30 22:22 | 56.36603 | 38.92192 | 35155 ft | 463 kts | 137° |
| 2026-04-30 22:22 | 56.34192 | 38.96024 | 34849 ft | 460 kts | 137° |
| 2026-04-30 22:22 | 56.31799 | 38.99826 | 34566 ft | 457 kts | 137° |
| 2026-04-30 22:22 | 56.29423 | 39.03592 | 34273 ft | 455 kts | 137° |
| 2026-04-30 22:23 | 56.27049 | 39.07340 | 33934 ft | 452 kts | 137° |
| 2026-04-30 22:23 | 56.24688 | 39.11056 | 33569 ft | 449 kts | 137° |
| 2026-04-30 22:23 | 56.22344 | 39.14735 | 33236 ft | 446 kts | 137° |
| 2026-04-30 22:23 | 56.20020 | 39.18379 | 32895 ft | 442 kts | 137° |
| 2026-04-30 22:24 | 56.17709 | 39.21999 | 32468 ft | 439 kts | 137° |
| 2026-04-30 22:24 | 56.15417 | 39.25588 | 32028 ft | 435 kts | 137° |
| 2026-04-30 22:24 | 56.13144 | 39.29138 | 31575 ft | 431 kts | 137° |
| 2026-04-30 22:24 | 56.10895 | 39.32645 | 31134 ft | 427 kts | 137° |
| 2026-04-30 22:25 | 56.08659 | 39.36124 | 30691 ft | 423 kts | 138° |
| 2026-04-30 22:25 | 56.06444 | 39.39564 | 30262 ft | 420 kts | 138° |
| 2026-04-30 22:25 | 56.04248 | 39.42969 | 29734 ft | 416 kts | 138° |
| 2026-04-30 22:25 | 56.02077 | 39.46333 | 29190 ft | 412 kts | 138° |
| 2026-04-30 22:26 | 55.97785 | 39.52966 | 28188 ft | 403 kts | 139° |
| 2026-04-30 22:26 | 55.95668 | 39.56225 | 27694 ft | 399 kts | 139° |
| 2026-04-30 22:26 | 55.93580 | 39.59439 | 27201 ft | 395 kts | 139° |
| 2026-04-30 22:27 | 55.91384 | 39.62338 | 26719 ft | 391 kts | 152° |
| 2026-04-30 22:27 | 55.88877 | 39.64062 | 26290 ft | 384 kts | 169° |
| 2026-04-30 22:27 | 55.83680 | 39.63572 | 25764 ft | 374 kts | 201° |
| 2026-04-30 22:28 | 55.79496 | 39.58443 | 25266 ft | 366 kts | 232° |
| 2026-04-30 22:28 | 55.78143 | 39.54650 | 25011 ft | 363 kts | 247° |
| 2026-04-30 22:29 | 55.76827 | 39.41612 | 24195 ft | 356 kts | 263° |
| 2026-04-30 22:29 | 55.76526 | 39.37254 | 23981 ft | 353 kts | 263° |
| 2026-04-30 22:30 | 55.75288 | 39.19955 | 23651 ft | 352 kts | 263° |
| 2026-04-30 22:31 | 55.74361 | 39.07035 | 23372 ft | 351 kts | 263° |
| 2026-04-30 22:32 | 55.73464 | 38.94167 | 23098 ft | 349 kts | 268° |
| 2026-04-30 22:32 | 55.73735 | 38.85644 | 22421 ft | 346 kts | 276° |
| 2026-04-30 22:33 | 55.74377 | 38.72946 | 21374 ft | 340 kts | 275° |
| 2026-04-30 22:33 | 55.74775 | 38.64690 | 20693 ft | 336 kts | 275° |
| 2026-04-30 22:34 | 55.76763 | 38.53006 | 20083 ft | 333 kts | 303° |
| 2026-04-30 22:35 | 55.79428 | 38.46275 | 20089 ft | 333 kts | 304° |
| 2026-04-30 22:36 | 55.84740 | 38.33086 | 19621 ft | 320 kts | 307° |
| 2026-04-30 22:36 | 55.86101 | 38.29980 | 19309 ft | 316 kts | 307° |
| 2026-04-30 22:37 | 55.90137 | 38.20826 | 18397 ft | 311 kts | 307° |
| 2026-04-30 22:37 | 55.91459 | 38.17795 | 18065 ft | 309 kts | 307° |
| 2026-04-30 22:37 | 55.94072 | 38.11755 | 17489 ft | 306 kts | 307° |
| 2026-04-30 22:38 | 55.96628 | 38.05800 | 16901 ft | 303 kts | 307° |
| 2026-04-30 22:38 | 55.99171 | 37.99855 | 16352 ft | 300 kts | 306° |
| 2026-04-30 22:39 | 56.00241 | 37.96623 | 16053 ft | 298 kts | 294° |
| 2026-04-30 22:39 | 56.01611 | 37.85889 | 15517 ft | 297 kts | 282° |
| 2026-04-30 22:40 | 56.04264 | 37.76238 | 14959 ft | 293 kts | 320° |
| 2026-04-30 22:41 | 56.09644 | 37.71220 | 14415 ft | 291 kts | 335° |
| 2026-04-30 22:41 | 56.13283 | 37.68110 | 14052 ft | 289 kts | 330° |
| 2026-04-30 22:42 | 56.20175 | 37.60791 | 12546 ft | 285 kts | 329° |
| 2026-04-30 22:43 | 56.23560 | 37.57178 | 11843 ft | 281 kts | 329° |
| 2026-04-30 22:43 | 56.26908 | 37.53603 | 11146 ft | 278 kts | 330° |
| 2026-04-30 22:44 | 56.29857 | 37.49324 | 10466 ft | 276 kts | 301° |
| 2026-04-30 22:45 | 56.28063 | 37.36681 | 8940 ft | 282 kts | 238° |
| 2026-04-30 22:45 | 56.25369 | 37.31697 | 8184 ft | 283 kts | 207° |
| 2026-04-30 22:46 | 56.21521 | 37.31020 | 7411 ft | 281 kts | 164° |
| 2026-04-30 22:47 | 56.16767 | 37.38664 | 6744 ft | 234 kts | 79° |
| 2026-04-30 22:47 | 56.17567 | 37.44215 | 6276 ft | 225 kts | 72° |
| 2026-04-30 22:48 | 56.18375 | 37.49574 | 5815 ft | 221 kts | 72° |
| 2026-04-30 22:49 | 56.19174 | 37.57663 | 5139 ft | 223 kts | 97° |
| 2026-04-30 22:49 | 56.16578 | 37.64528 | 4777 ft | 228 kts | 133° |
| 2026-04-30 22:50 | 56.12188 | 37.72558 | 4332 ft | 227 kts | 133° |
| 2026-04-30 22:51 | 56.09893 | 37.76327 | 4124 ft | 220 kts | 153° |
| 2026-04-30 22:51 | 56.07020 | 37.76530 | 3826 ft | 208 kts | 199° |
| 2026-04-30 22:52 | 56.05648 | 37.75735 | 3652 ft | 206 kts | 199° |
| 2026-04-30 22:52 | 56.03007 | 37.74023 | 3334 ft | 194 kts | 214° |
| 2026-04-30 22:53 | 56.01441 | 37.70570 | 3008 ft | 171 kts | 255° |
| 2026-04-30 22:53 | 56.00855 | 37.66659 | 2749 ft | 156 kts | 259° |
| 2026-04-30 22:53 | 56.00585 | 37.64824 | 2671 ft | 150 kts | 259° |
| 2026-04-30 22:54 | 56.00073 | 37.61334 | 2571 ft | 142 kts | 259° |
| 2026-04-30 22:55 | 55.99328 | 37.56274 | 2101 ft | 140 kts | 259° |
| 2026-04-30 22:55 | 55.98824 | 37.52912 | 1706 ft | 140 kts | 256° |
| 2026-04-30 22:56 | 55.98324 | 37.49597 | 1180 ft | 136 kts | 257° |
| 2026-04-30 22:56 | 55.97622 | 37.44724 | 717 ft | 134 kts | 254° |
| 2026-04-30 22:57 | 55.97196 | 37.41859 | 642 ft | 85 kts | 255° |
| 2026-04-30 22:57 | 55.96987 | 37.40441 | 639 ft | 47 kts | 256° |
| 2026-04-30 22:58 | 55.97036 | 37.40019 | 643 ft | 11 kts | 346° |
| 2026-04-30 22:59 | 55.97040 | 37.40017 | 643 ft | 0 kts | 346° |
| 2026-04-30 22:59 | 55.97268 | 37.39911 | 641 ft | 15 kts | 345° |